This is the latest recevied weather packets stored in our database for station/object DH0DM-13. If no packets are shown the sender has not sent any weather packets the latest 10 day(s).
| Time | Temp. | Humidity | Pressure | Rain* | Wind** | Luminosity | Snow |
|---|---|---|---|---|---|---|---|
| 1787487798 | 17.22° C | 56% | 996 hPa | 0 mm | 5.36 m/s, 203° | - | - |
| 1787487197 | 17.22° C | 56% | 995.7 hPa | 0 mm | 8.05 m/s, 256° | - | - |
| 1787486596 | 17.78° C | 53% | 995.8 hPa | 0 mm | 9.39 m/s, 226° | - | - |
| 1787485995 | 17.78° C | 55% | 995.6 hPa | 0 mm | 6.71 m/s, 139° | - | - |
| 1787485394 | 17.22° C | 56% | 995.6 hPa | 0 mm | 6.26 m/s, 218° | - | - |
| 1787484793 | 17.78° C | 57% | 995.6 hPa | 0 mm | 8.94 m/s, 208° | - | - |
| 1787484192 | 17.78° C | 54% | 995.4 hPa | 0 mm | 8.49 m/s, 223° | - | - |
| 1787483589 | 17.78° C | 59% | 995.4 hPa | 0 mm | 1.34 m/s, 301° | - | - |
| 1787482989 | 17.78° C | 58% | 995.6 hPa | 0 mm | 3.13 m/s, 305° | - | - |
| 1787482388 | 17.22° C | 57% | 995.5 hPa | 0 mm | 5.36 m/s, 236° | - | - |
| 1787481787 | 17.22° C | 57% | 995.5 hPa | 0 mm | 8.49 m/s, 276° | - | - |
| 1787481186 | 17.22° C | 57% | 995.4 hPa | 0 mm | 15.65 m/s, 247° | - | - |
| 1787480585 | 16.67° C | 59% | 995.6 hPa | 0 mm | 5.36 m/s, 201° | - | - |
| 1787479984 | 17.22° C | 59% | 995.5 hPa | 0 mm | 5.81 m/s, 213° | - | - |
| 1787479383 | 16.67° C | 60% | 995.5 hPa | 0 mm | 7.15 m/s, 223° | - | - |
| 1787478782 | 17.22° C | 58% | 995.6 hPa | 0 mm | 16.54 m/s, 248° | - | - |
| 1787478181 | 16.67° C | 63% | 995.7 hPa | 0 mm | 8.05 m/s, 223° | - | - |
| 1787477580 | 16.11° C | 61% | 995.7 hPa | 0 mm | 5.81 m/s, 228° | - | - |
| 1787476979 | 16.11° C | 61% | 995.6 hPa | 0 mm | 10.28 m/s, 231° | - | - |
| 1787476378 | 16.67° C | 64% | 995.4 hPa | 0 mm | 2.68 m/s, 260° | - | - |
| 1787475778 | 16.67° C | 65% | 995.6 hPa | 0 mm | 4.92 m/s, 204° | - | - |
| 1787475177 | 16.67° C | 66% | 995.6 hPa | 0 mm | 3.58 m/s, 223° | - | - |
| 1787474576 | 15.56° C | 67% | 995.4 hPa | 0 mm | 5.36 m/s, 223° | - | - |
| 1787473975 | 16.11° C | 68% | 995.7 hPa | 0 mm | 8.05 m/s, 166° | - | - |
| 1787473373 | 15° C | 72% | 995.4 hPa | 0 mm | 8.05 m/s, 246° | - | - |
* Rain since midnight (hover to see other rain measurements)
** Current wind speed in m/s (hover to see current wind gust speed)